METAR Data

Data at: 0455 UTC 20 Oct 2018

METAR for:KLGA (New York/La Guardia, NY, US)
Text:KLGA 200451Z 21012KT 10SM BKN140 OVC250 14/07 A2987 RMK AO2 SLP115 T01440067 401720072
Temperature: 14.4°C ( 58°F)
Dewpoint: 6.7°C ( 44°F) [RH = 60%]
Pressure (altimeter):29.87 inches Hg (1011.6 mb) [Sea level pressure: 1011.5 mb]
Winds:from the SSW (210 degrees) at 14 MPH (12 knots; 6.2 m/s)
Visibility:10 or more sm (16+ km)
Ceiling:14000 feet AGL
Clouds: broken clouds at 14000 feet AGL, overcast cloud deck at 25000 feet AGL